sensor_id;sensor_type;location;lat;lon;timestamp;P1;durP1;ratioP1;P2;durP2;ratioP2
14066;SDS011;7108;42.684;23.350;2022-11-09T00:01:32;246.10;;;102.03;;
14066;SDS011;7108;42.684;23.350;2022-11-09T00:03:59;254.80;;;103.47;;
14066;SDS011;7108;42.684;23.350;2022-11-09T00:06:25;241.27;;;100.43;;
14066;SDS011;7108;42.684;23.350;2022-11-09T00:08:52;284.03;;;104.97;;
14066;SDS011;7108;42.684;23.350;2022-11-09T00:11:18;269.27;;;103.67;;
14066;SDS011;7108;42.684;23.350;2022-11-09T00:13:44;275.43;;;103.00;;
14066;SDS011;7108;42.684;23.350;2022-11-09T00:16:11;276.37;;;103.63;;
14066;SDS011;7108;42.684;23.350;2022-11-09T00:18:39;265.30;;;103.47;;
14066;SDS011;7108;42.684;23.350;2022-11-09T00:21:09;285.27;;;106.03;;
14066;SDS011;7108;42.684;23.350;2022-11-09T00:23:37;260.17;;;100.87;;
14066;SDS011;7108;42.684;23.350;2022-11-09T00:26:03;267.30;;;101.47;;
14066;SDS011;7108;42.684;23.350;2022-11-09T00:28:31;246.47;;;99.37;;
14066;SDS011;7108;42.684;23.350;2022-11-09T00:30:58;258.53;;;101.97;;
14066;SDS011;7108;42.684;23.350;2022-11-09T00:33:24;271.63;;;105.13;;
14066;SDS011;7108;42.684;23.350;2022-11-09T00:35:50;277.80;;;103.17;;
14066;SDS011;7108;42.684;23.350;2022-11-09T00:38:15;267.43;;;104.13;;
14066;SDS011;7108;42.684;23.350;2022-11-09T00:40:40;273.20;;;106.30;;
14066;SDS011;7108;42.684;23.350;2022-11-09T00:43:06;256.67;;;102.07;;
14066;SDS011;7108;42.684;23.350;2022-11-09T00:45:31;251.77;;;98.40;;
14066;SDS011;7108;42.684;23.350;2022-11-09T00:47:57;249.97;;;99.00;;
14066;SDS011;7108;42.684;23.350;2022-11-09T00:50:22;259.33;;;101.40;;
14066;SDS011;7108;42.684;23.350;2022-11-09T00:52:47;265.20;;;103.73;;
14066;SDS011;7108;42.684;23.350;2022-11-09T00:55:13;278.23;;;99.93;;
14066;SDS011;7108;42.684;23.350;2022-11-09T00:57:39;276.87;;;102.43;;
14066;SDS011;7108;42.684;23.350;2022-11-09T01:00:04;265.57;;;100.93;;
14066;SDS011;7108;42.684;23.350;2022-11-09T01:02:30;265.53;;;103.37;;
14066;SDS011;7108;42.684;23.350;2022-11-09T01:04:55;244.97;;;98.63;;
14066;SDS011;7108;42.684;23.350;2022-11-09T01:07:21;259.80;;;101.03;;
14066;SDS011;7108;42.684;23.350;2022-11-09T01:09:47;290.17;;;104.03;;
14066;SDS011;7108;42.684;23.350;2022-11-09T01:12:12;287.47;;;104.50;;
14066;SDS011;7108;42.684;23.350;2022-11-09T01:14:38;258.43;;;101.57;;
14066;SDS011;7108;42.684;23.350;2022-11-09T01:17:03;263.33;;;102.10;;
14066;SDS011;7108;42.684;23.350;2022-11-09T01:19:28;263.73;;;103.13;;
14066;SDS011;7108;42.684;23.350;2022-11-09T01:21:54;253.63;;;102.50;;
14066;SDS011;7108;42.684;23.350;2022-11-09T01:24:19;287.87;;;105.20;;
14066;SDS011;7108;42.684;23.350;2022-11-09T01:26:44;282.73;;;103.17;;
14066;SDS011;7108;42.684;23.350;2022-11-09T01:29:10;272.27;;;105.10;;
14066;SDS011;7108;42.684;23.350;2022-11-09T01:31:35;245.37;;;100.07;;
14066;SDS011;7108;42.684;23.350;2022-11-09T01:34:01;266.33;;;102.83;;
14066;SDS011;7108;42.684;23.350;2022-11-09T01:36:26;255.60;;;101.70;;
14066;SDS011;7108;42.684;23.350;2022-11-09T01:38:51;273.43;;;102.03;;
14066;SDS011;7108;42.684;23.350;2022-11-09T01:41:21;275.23;;;104.10;;
14066;SDS011;7108;42.684;23.350;2022-11-09T01:49:18;287.50;;;105.77;;
14066;SDS011;7108;42.684;23.350;2022-11-09T01:51:47;269.20;;;102.90;;
14066;SDS011;7108;42.684;23.350;2022-11-09T01:54:18;267.03;;;103.43;;
14066;SDS011;7108;42.684;23.350;2022-11-09T01:56:49;283.57;;;103.27;;
14066;SDS011;7108;42.684;23.350;2022-11-09T01:59:19;270.00;;;103.97;;
14066;SDS011;7108;42.684;23.350;2022-11-09T02:01:48;262.53;;;102.97;;
14066;SDS011;7108;42.684;23.350;2022-11-09T02:06:45;273.87;;;102.83;;
14066;SDS011;7108;42.684;23.350;2022-11-09T02:09:13;281.70;;;103.47;;
14066;SDS011;7108;42.684;23.350;2022-11-09T02:11:55;256.00;;;99.53;;
14066;SDS011;7108;42.684;23.350;2022-11-09T02:14:21;274.43;;;103.27;;
14066;SDS011;7108;42.684;23.350;2022-11-09T02:16:50;274.20;;;103.43;;
14066;SDS011;7108;42.684;23.350;2022-11-09T02:19:16;275.13;;;101.20;;
14066;SDS011;7108;42.684;23.350;2022-11-09T02:21:41;265.53;;;103.10;;
14066;SDS011;7108;42.684;23.350;2022-11-09T02:24:07;278.73;;;102.70;;
14066;SDS011;7108;42.684;23.350;2022-11-09T02:26:43;263.70;;;101.40;;
14066;SDS011;7108;42.684;23.350;2022-11-09T02:29:27;263.10;;;102.50;;
14066;SDS011;7108;42.684;23.350;2022-11-09T02:31:59;249.37;;;101.47;;
14066;SDS011;7108;42.684;23.350;2022-11-09T02:34:27;245.90;;;98.73;;
14066;SDS011;7108;42.684;23.350;2022-11-09T02:36:56;269.33;;;102.07;;
14066;SDS011;7108;42.684;23.350;2022-11-09T02:39:22;263.90;;;102.03;;
14066;SDS011;7108;42.684;23.350;2022-11-09T02:41:55;259.43;;;101.27;;
14066;SDS011;7108;42.684;23.350;2022-11-09T02:44:21;260.43;;;98.67;;
14066;SDS011;7108;42.684;23.350;2022-11-09T02:46:48;248.03;;;97.70;;
14066;SDS011;7108;42.684;23.350;2022-11-09T02:49:13;253.97;;;101.00;;
14066;SDS011;7108;42.684;23.350;2022-11-09T02:51:39;254.30;;;99.83;;
14066;SDS011;7108;42.684;23.350;2022-11-09T02:54:04;239.73;;;96.80;;
14066;SDS011;7108;42.684;23.350;2022-11-09T02:56:30;245.67;;;100.00;;
14066;SDS011;7108;42.684;23.350;2022-11-09T02:58:55;229.73;;;96.43;;
14066;SDS011;7108;42.684;23.350;2022-11-09T03:01:20;245.53;;;99.67;;
14066;SDS011;7108;42.684;23.350;2022-11-09T03:03:46;259.57;;;101.83;;
14066;SDS011;7108;42.684;23.350;2022-11-09T03:06:12;259.37;;;96.77;;
14066;SDS011;7108;42.684;23.350;2022-11-09T03:08:37;249.80;;;101.23;;
14066;SDS011;7108;42.684;23.350;2022-11-09T03:11:03;240.17;;;96.63;;
14066;SDS011;7108;42.684;23.350;2022-11-09T03:13:30;228.07;;;95.67;;
14066;SDS011;7108;42.684;23.350;2022-11-09T03:15:55;224.17;;;95.23;;
14066;SDS011;7108;42.684;23.350;2022-11-09T03:18:21;266.57;;;98.67;;
14066;SDS011;7108;42.684;23.350;2022-11-09T03:20:47;251.20;;;93.63;;
14066;SDS011;7108;42.684;23.350;2022-11-09T03:23:12;274.03;;;100.00;;
14066;SDS011;7108;42.684;23.350;2022-11-09T03:25:37;248.13;;;98.57;;
14066;SDS011;7108;42.684;23.350;2022-11-09T03:28:04;232.27;;;95.60;;
14066;SDS011;7108;42.684;23.350;2022-11-09T03:30:32;235.73;;;95.97;;
14066;SDS011;7108;42.684;23.350;2022-11-09T03:33:01;224.40;;;96.23;;
14066;SDS011;7108;42.684;23.350;2022-11-09T03:35:31;222.63;;;95.73;;
14066;SDS011;7108;42.684;23.350;2022-11-09T03:37:56;234.73;;;98.97;;
14066;SDS011;7108;42.684;23.350;2022-11-09T03:40:22;258.67;;;100.03;;
14066;SDS011;7108;42.684;23.350;2022-11-09T03:42:47;223.57;;;93.07;;
14066;SDS011;7108;42.684;23.350;2022-11-09T03:45:14;261.03;;;100.83;;
14066;SDS011;7108;42.684;23.350;2022-11-09T03:47:40;240.43;;;97.27;;
14066;SDS011;7108;42.684;23.350;2022-11-09T03:50:10;256.13;;;97.80;;
14066;SDS011;7108;42.684;23.350;2022-11-09T03:52:37;225.73;;;94.20;;
14066;SDS011;7108;42.684;23.350;2022-11-09T03:55:03;237.67;;;96.20;;
14066;SDS011;7108;42.684;23.350;2022-11-09T03:57:30;217.07;;;94.43;;
14066;SDS011;7108;42.684;23.350;2022-11-09T03:59:55;225.23;;;97.40;;
14066;SDS011;7108;42.684;23.350;2022-11-09T04:02:21;245.70;;;96.70;;
14066;SDS011;7108;42.684;23.350;2022-11-09T04:04:47;261.10;;;99.67;;
14066;SDS011;7108;42.684;23.350;2022-11-09T04:07:12;261.97;;;101.37;;
14066;SDS011;7108;42.684;23.350;2022-11-09T04:09:38;240.13;;;96.73;;
14066;SDS011;7108;42.684;23.350;2022-11-09T04:12:03;230.13;;;94.77;;
14066;SDS011;7108;42.684;23.350;2022-11-09T04:14:29;224.47;;;95.47;;
14066;SDS011;7108;42.684;23.350;2022-11-09T04:16:55;226.60;;;95.80;;
14066;SDS011;7108;42.684;23.350;2022-11-09T04:19:20;248.77;;;96.20;;
14066;SDS011;7108;42.684;23.350;2022-11-09T04:21:45;228.20;;;92.97;;
14066;SDS011;7108;42.684;23.350;2022-11-09T04:24:11;235.33;;;95.37;;
14066;SDS011;7108;42.684;23.350;2022-11-09T04:26:36;222.87;;;92.67;;
14066;SDS011;7108;42.684;23.350;2022-11-09T04:29:02;225.33;;;96.30;;
14066;SDS011;7108;42.684;23.350;2022-11-09T04:31:27;219.97;;;94.00;;
14066;SDS011;7108;42.684;23.350;2022-11-09T04:33:55;239.43;;;95.83;;
14066;SDS011;7108;42.684;23.350;2022-11-09T04:36:21;258.93;;;100.60;;
14066;SDS011;7108;42.684;23.350;2022-11-09T04:38:47;444.27;;;201.17;;
14066;SDS011;7108;42.684;23.350;2022-11-09T04:41:12;259.33;;;101.87;;
14066;SDS011;7108;42.684;23.350;2022-11-09T04:43:38;224.80;;;95.20;;
14066;SDS011;7108;42.684;23.350;2022-11-09T04:46:03;225.03;;;94.07;;
14066;SDS011;7108;42.684;23.350;2022-11-09T04:48:29;221.10;;;94.73;;
14066;SDS011;7108;42.684;23.350;2022-11-09T04:51:04;211.50;;;93.23;;
14066;SDS011;7108;42.684;23.350;2022-11-09T04:53:31;220.43;;;93.63;;
14066;SDS011;7108;42.684;23.350;2022-11-09T04:55:57;236.70;;;95.57;;
14066;SDS011;7108;42.684;23.350;2022-11-09T04:58:23;253.13;;;95.63;;
14066;SDS011;7108;42.684;23.350;2022-11-09T05:00:49;250.77;;;99.03;;
14066;SDS011;7108;42.684;23.350;2022-11-09T05:03:14;255.47;;;95.50;;
14066;SDS011;7108;42.684;23.350;2022-11-09T05:05:40;249.20;;;94.10;;
14066;SDS011;7108;42.684;23.350;2022-11-09T05:08:06;209.03;;;89.27;;
14066;SDS011;7108;42.684;23.350;2022-11-09T05:10:32;215.23;;;90.83;;
14066;SDS011;7108;42.684;23.350;2022-11-09T05:13:08;233.47;;;95.93;;
14066;SDS011;7108;42.684;23.350;2022-11-09T05:15:35;215.37;;;91.27;;
14066;SDS011;7108;42.684;23.350;2022-11-09T05:18:01;220.37;;;93.03;;
14066;SDS011;7108;42.684;23.350;2022-11-09T05:20:28;237.30;;;95.80;;
14066;SDS011;7108;42.684;23.350;2022-11-09T05:22:53;243.83;;;95.60;;
14066;SDS011;7108;42.684;23.350;2022-11-09T05:25:37;233.00;;;94.07;;
14066;SDS011;7108;42.684;23.350;2022-11-09T05:28:03;235.60;;;94.27;;
14066;SDS011;7108;42.684;23.350;2022-11-09T05:30:28;221.17;;;92.07;;
14066;SDS011;7108;42.684;23.350;2022-11-09T05:32:54;232.37;;;95.20;;
14066;SDS011;7108;42.684;23.350;2022-11-09T05:35:20;244.73;;;94.67;;
14066;SDS011;7108;42.684;23.350;2022-11-09T05:37:46;250.53;;;96.83;;
14066;SDS011;7108;42.684;23.350;2022-11-09T05:40:13;266.73;;;97.07;;
14066;SDS011;7108;42.684;23.350;2022-11-09T05:42:39;249.27;;;94.43;;
14066;SDS011;7108;42.684;23.350;2022-11-09T05:45:09;255.33;;;95.67;;
14066;SDS011;7108;42.684;23.350;2022-11-09T05:47:37;228.27;;;91.93;;
14066;SDS011;7108;42.684;23.350;2022-11-09T05:50:04;225.97;;;93.40;;
14066;SDS011;7108;42.684;23.350;2022-11-09T05:52:30;260.87;;;100.83;;
14066;SDS011;7108;42.684;23.350;2022-11-09T05:54:56;240.93;;;94.67;;
14066;SDS011;7108;42.684;23.350;2022-11-09T05:57:21;240.67;;;92.67;;
14066;SDS011;7108;42.684;23.350;2022-11-09T05:59:46;248.93;;;94.17;;
14066;SDS011;7108;42.684;23.350;2022-11-09T06:02:12;243.93;;;95.27;;
14066;SDS011;7108;42.684;23.350;2022-11-09T06:04:37;219.60;;;94.13;;
14066;SDS011;7108;42.684;23.350;2022-11-09T06:07:03;243.60;;;93.70;;
14066;SDS011;7108;42.684;23.350;2022-11-09T06:09:28;220.20;;;92.77;;
14066;SDS011;7108;42.684;23.350;2022-11-09T06:11:54;254.20;;;98.87;;
14066;SDS011;7108;42.684;23.350;2022-11-09T06:14:19;257.80;;;96.67;;
14066;SDS011;7108;42.684;23.350;2022-11-09T06:16:44;233.80;;;94.73;;
14066;SDS011;7108;42.684;23.350;2022-11-09T06:19:10;268.47;;;97.83;;
14066;SDS011;7108;42.684;23.350;2022-11-09T06:21:35;240.03;;;98.97;;
14066;SDS011;7108;42.684;23.350;2022-11-09T06:24:01;219.40;;;92.93;;
14066;SDS011;7108;42.684;23.350;2022-11-09T06:26:27;210.63;;;90.80;;
14066;SDS011;7108;42.684;23.350;2022-11-09T06:28:52;246.03;;;98.67;;
14066;SDS011;7108;42.684;23.350;2022-11-09T06:31:18;270.03;;;98.17;;
14066;SDS011;7108;42.684;23.350;2022-11-09T06:33:44;249.20;;;96.60;;
14066;SDS011;7108;42.684;23.350;2022-11-09T06:36:13;252.17;;;99.13;;
14066;SDS011;7108;42.684;23.350;2022-11-09T06:38:38;248.23;;;98.87;;
14066;SDS011;7108;42.684;23.350;2022-11-09T06:41:04;237.03;;;98.07;;
14066;SDS011;7108;42.684;23.350;2022-11-09T06:43:29;226.00;;;95.77;;
14066;SDS011;7108;42.684;23.350;2022-11-09T06:45:55;227.30;;;94.17;;
14066;SDS011;7108;42.684;23.350;2022-11-09T06:48:21;259.53;;;96.20;;
14066;SDS011;7108;42.684;23.350;2022-11-09T06:50:46;243.40;;;94.47;;
14066;SDS011;7108;42.684;23.350;2022-11-09T06:53:13;259.57;;;98.33;;
14066;SDS011;7108;42.684;23.350;2022-11-09T06:55:40;248.00;;;99.43;;
14066;SDS011;7108;42.684;23.350;2022-11-09T06:58:09;245.00;;;95.73;;
14066;SDS011;7108;42.684;23.350;2022-11-09T07:00:36;240.43;;;97.97;;
14066;SDS011;7108;42.684;23.350;2022-11-09T07:03:02;222.47;;;97.60;;
14066;SDS011;7108;42.684;23.350;2022-11-09T07:05:28;222.40;;;101.13;;
14066;SDS011;7108;42.684;23.350;2022-11-09T07:07:53;253.37;;;106.90;;
14066;SDS011;7108;42.684;23.350;2022-11-09T07:10:19;275.87;;;112.13;;
14066;SDS011;7108;42.684;23.350;2022-11-09T07:12:44;251.80;;;110.93;;
14066;SDS011;7108;42.684;23.350;2022-11-09T07:15:10;280.13;;;115.13;;
14066;SDS011;7108;42.684;23.350;2022-11-09T07:17:36;238.63;;;116.10;;
14066;SDS011;7108;42.684;23.350;2022-11-09T07:20:04;244.77;;;116.40;;
14066;SDS011;7108;42.684;23.350;2022-11-09T07:22:30;242.27;;;115.03;;
14066;SDS011;7108;42.684;23.350;2022-11-09T07:24:58;240.23;;;114.63;;
14066;SDS011;7108;42.684;23.350;2022-11-09T07:27:25;268.67;;;118.50;;
14066;SDS011;7108;42.684;23.350;2022-11-09T07:29:50;258.27;;;112.87;;
14066;SDS011;7108;42.684;23.350;2022-11-09T07:32:15;252.40;;;114.30;;
14066;SDS011;7108;42.684;23.350;2022-11-09T07:34:41;258.27;;;113.23;;
14066;SDS011;7108;42.684;23.350;2022-11-09T07:37:06;249.93;;;109.30;;
14066;SDS011;7108;42.684;23.350;2022-11-09T07:39:32;244.00;;;110.07;;
14066;SDS011;7108;42.684;23.350;2022-11-09T07:41:58;228.23;;;108.70;;
14066;SDS011;7108;42.684;23.350;2022-11-09T07:44:23;255.20;;;107.37;;
14066;SDS011;7108;42.684;23.350;2022-11-09T07:46:49;261.47;;;110.10;;
14066;SDS011;7108;42.684;23.350;2022-11-09T07:49:15;253.87;;;110.67;;
14066;SDS011;7108;42.684;23.350;2022-11-09T07:51:41;224.83;;;106.27;;
14066;SDS011;7108;42.684;23.350;2022-11-09T07:54:07;255.33;;;108.77;;
14066;SDS011;7108;42.684;23.350;2022-11-09T07:56:34;232.57;;;109.20;;
14066;SDS011;7108;42.684;23.350;2022-11-09T07:58:59;232.10;;;107.57;;
14066;SDS011;7108;42.684;23.350;2022-11-09T08:01:24;238.53;;;107.63;;
14066;SDS011;7108;42.684;23.350;2022-11-09T08:03:51;273.73;;;114.67;;
14066;SDS011;7108;42.684;23.350;2022-11-09T08:06:17;271.03;;;111.77;;
14066;SDS011;7108;42.684;23.350;2022-11-09T08:08:42;242.70;;;107.57;;
14066;SDS011;7108;42.684;23.350;2022-11-09T08:11:08;266.73;;;108.80;;
14066;SDS011;7108;42.684;23.350;2022-11-09T08:13:33;242.07;;;107.03;;
14066;SDS011;7108;42.684;23.350;2022-11-09T08:16:02;240.60;;;108.63;;
14066;SDS011;7108;42.684;23.350;2022-11-09T08:18:28;240.27;;;108.33;;
14066;SDS011;7108;42.684;23.350;2022-11-09T08:20:54;263.73;;;106.17;;
14066;SDS011;7108;42.684;23.350;2022-11-09T08:23:19;277.83;;;109.20;;
14066;SDS011;7108;42.684;23.350;2022-11-09T08:25:49;261.10;;;108.00;;
14066;SDS011;7108;42.684;23.350;2022-11-09T08:28:14;273.93;;;108.30;;
14066;SDS011;7108;42.684;23.350;2022-11-09T08:30:41;264.70;;;107.50;;
14066;SDS011;7108;42.684;23.350;2022-11-09T08:33:09;290.70;;;113.67;;
14066;SDS011;7108;42.684;23.350;2022-11-09T08:35:35;240.27;;;111.43;;
14066;SDS011;7108;42.684;23.350;2022-11-09T08:38:02;259.70;;;114.63;;
14066;SDS011;7108;42.684;23.350;2022-11-09T08:40:29;257.60;;;112.80;;
14066;SDS011;7108;42.684;23.350;2022-11-09T08:42:59;234.43;;;111.83;;
14066;SDS011;7108;42.684;23.350;2022-11-09T08:45:27;239.50;;;109.97;;
14066;SDS011;7108;42.684;23.350;2022-11-09T08:47:58;271.77;;;113.33;;
14066;SDS011;7108;42.684;23.350;2022-11-09T08:50:28;238.77;;;107.23;;
14066;SDS011;7108;42.684;23.350;2022-11-09T08:52:57;248.77;;;112.23;;
14066;SDS011;7108;42.684;23.350;2022-11-09T08:55:23;250.33;;;110.77;;
14066;SDS011;7108;42.684;23.350;2022-11-09T08:57:52;256.80;;;114.97;;
14066;SDS011;7108;42.684;23.350;2022-11-09T09:00:19;269.57;;;117.20;;
14066;SDS011;7108;42.684;23.350;2022-11-09T09:02:44;268.87;;;117.43;;
14066;SDS011;7108;42.684;23.350;2022-11-09T09:05:10;274.80;;;115.87;;
14066;SDS011;7108;42.684;23.350;2022-11-09T09:07:35;250.17;;;113.30;;
14066;SDS011;7108;42.684;23.350;2022-11-09T09:10:01;249.63;;;115.37;;
14066;SDS011;7108;42.684;23.350;2022-11-09T09:12:26;246.17;;;111.80;;
14066;SDS011;7108;42.684;23.350;2022-11-09T09:14:51;264.80;;;116.70;;
14066;SDS011;7108;42.684;23.350;2022-11-09T09:17:17;285.87;;;118.50;;
14066;SDS011;7108;42.684;23.350;2022-11-09T09:19:42;258.37;;;116.13;;
14066;SDS011;7108;42.684;23.350;2022-11-09T09:22:08;269.03;;;115.27;;
14066;SDS011;7108;42.684;23.350;2022-11-09T09:24:33;246.30;;;110.70;;
14066;SDS011;7108;42.684;23.350;2022-11-09T09:26:59;256.47;;;111.43;;
14066;SDS011;7108;42.684;23.350;2022-11-09T09:29:24;243.47;;;111.50;;
14066;SDS011;7108;42.684;23.350;2022-11-09T09:31:50;266.03;;;116.97;;
14066;SDS011;7108;42.684;23.350;2022-11-09T09:34:15;288.87;;;116.03;;
14066;SDS011;7108;42.684;23.350;2022-11-09T09:36:41;269.63;;;114.23;;
14066;SDS011;7108;42.684;23.350;2022-11-09T09:39:07;238.97;;;107.90;;
14066;SDS011;7108;42.684;23.350;2022-11-09T09:41:37;232.87;;;108.33;;
14066;SDS011;7108;42.684;23.350;2022-11-09T09:44:15;243.03;;;109.80;;
14066;SDS011;7108;42.684;23.350;2022-11-09T09:49:35;231.23;;;110.50;;
14066;SDS011;7108;42.684;23.350;2022-11-09T09:52:19;244.10;;;110.40;;
14066;SDS011;7108;42.684;23.350;2022-11-09T09:54:52;249.83;;;112.13;;
14066;SDS011;7108;42.684;23.350;2022-11-09T09:57:20;264.17;;;111.63;;
14066;SDS011;7108;42.684;23.350;2022-11-09T09:59:48;260.37;;;113.93;;
14066;SDS011;7108;42.684;23.350;2022-11-09T10:02:25;274.77;;;113.30;;
14066;SDS011;7108;42.684;23.350;2022-11-09T10:04:56;232.53;;;109.43;;
14066;SDS011;7108;42.684;23.350;2022-11-09T10:07:29;283.77;;;111.80;;
14066;SDS011;7108;42.684;23.350;2022-11-09T10:09:59;268.00;;;113.23;;
14066;SDS011;7108;42.684;23.350;2022-11-09T10:15:18;268.90;;;111.40;;
14066;SDS011;7108;42.684;23.350;2022-11-09T10:20:57;241.70;;;108.33;;
14066;SDS011;7108;42.684;23.350;2022-11-09T10:24:28;254.47;;;111.47;;
14066;SDS011;7108;42.684;23.350;2022-11-09T10:26:51;246.03;;;110.67;;
14066;SDS011;7108;42.684;23.350;2022-11-09T10:29:20;276.33;;;115.27;;
14066;SDS011;7108;42.684;23.350;2022-11-09T10:31:47;261.47;;;111.20;;
14066;SDS011;7108;42.684;23.350;2022-11-09T10:34:18;277.13;;;112.17;;
14066;SDS011;7108;42.684;23.350;2022-11-09T10:36:55;276.03;;;113.43;;
14066;SDS011;7108;42.684;23.350;2022-11-09T10:39:38;229.60;;;109.33;;
14066;SDS011;7108;42.684;23.350;2022-11-09T10:42:08;232.80;;;107.47;;
14066;SDS011;7108;42.684;23.350;2022-11-09T10:44:35;241.47;;;106.87;;
14066;SDS011;7108;42.684;23.350;2022-11-09T10:47:02;235.00;;;105.60;;
14066;SDS011;7108;42.684;23.350;2022-11-09T10:49:36;251.87;;;106.13;;
14066;SDS011;7108;42.684;23.350;2022-11-09T10:52:03;235.30;;;107.23;;
14066;SDS011;7108;42.684;23.350;2022-11-09T10:54:33;228.60;;;107.93;;
14066;SDS011;7108;42.684;23.350;2022-11-09T10:59:50;251.20;;;111.87;;
14066;SDS011;7108;42.684;23.350;2022-11-09T11:07:31;229.97;;;111.57;;
14066;SDS011;7108;42.684;23.350;2022-11-09T11:15:38;254.17;;;113.07;;
14066;SDS011;7108;42.684;23.350;2022-11-09T11:18:19;233.17;;;108.03;;
14066;SDS011;7108;42.684;23.350;2022-11-09T11:21:02;245.63;;;112.27;;
14066;SDS011;7108;42.684;23.350;2022-11-09T11:23:31;225.93;;;110.70;;
14066;SDS011;7108;42.684;23.350;2022-11-09T11:26:44;232.67;;;109.33;;
14066;SDS011;7108;42.684;23.350;2022-11-09T11:28:59;218.50;;;112.50;;
14066;SDS011;7108;42.684;23.350;2022-11-09T11:31:28;238.20;;;110.90;;
14066;SDS011;7108;42.684;23.350;2022-11-09T11:33:53;250.97;;;112.70;;
14066;SDS011;7108;42.684;23.350;2022-11-09T11:36:24;273.90;;;118.50;;
14066;SDS011;7108;42.684;23.350;2022-11-09T11:41:48;230.63;;;114.57;;
14066;SDS011;7108;42.684;23.350;2022-11-09T11:44:19;246.63;;;113.40;;
14066;SDS011;7108;42.684;23.350;2022-11-09T11:49:51;256.93;;;120.97;;
14066;SDS011;7108;42.684;23.350;2022-11-09T12:03:55;258.50;;;117.00;;
14066;SDS011;7108;42.684;23.350;2022-11-09T12:09:15;238.07;;;122.93;;
14066;SDS011;7108;42.684;23.350;2022-11-09T12:14:48;262.37;;;118.30;;
14066;SDS011;7108;42.684;23.350;2022-11-09T12:20:13;235.77;;;119.73;;
14066;SDS011;7108;42.684;23.350;2022-11-09T12:28:22;256.30;;;118.73;;
14066;SDS011;7108;42.684;23.350;2022-11-09T12:33:49;266.73;;;116.03;;
14066;SDS011;7108;42.684;23.350;2022-11-09T12:36:21;281.30;;;119.13;;
14066;SDS011;7108;42.684;23.350;2022-11-09T12:39:01;265.40;;;116.93;;
14066;SDS011;7108;42.684;23.350;2022-11-09T12:41:40;257.23;;;115.87;;
14066;SDS011;7108;42.684;23.350;2022-11-09T12:46:53;267.13;;;117.90;;
14066;SDS011;7108;42.684;23.350;2022-11-09T12:49:39;252.03;;;113.60;;
14066;SDS011;7108;42.684;23.350;2022-11-09T12:52:07;240.73;;;120.33;;
14066;SDS011;7108;42.684;23.350;2022-11-09T12:54:38;256.03;;;124.20;;
14066;SDS011;7108;42.684;23.350;2022-11-09T12:57:07;238.90;;;121.50;;
14066;SDS011;7108;42.684;23.350;2022-11-09T12:59:50;377.40;;;186.60;;
14066;SDS011;7108;42.684;23.350;2022-11-09T13:04:55;268.97;;;126.43;;
14066;SDS011;7108;42.684;23.350;2022-11-09T13:07:29;249.67;;;122.40;;
14066;SDS011;7108;42.684;23.350;2022-11-09T13:10:03;244.87;;;118.40;;
14066;SDS011;7108;42.684;23.350;2022-11-09T13:15:08;243.37;;;119.93;;
14066;SDS011;7108;42.684;23.350;2022-11-09T13:21:30;244.60;;;120.67;;
14066;SDS011;7108;42.684;23.350;2022-11-09T13:23:55;227.67;;;124.20;;
14066;SDS011;7108;42.684;23.350;2022-11-09T13:29:09;243.10;;;124.23;;
14066;SDS011;7108;42.684;23.350;2022-11-09T13:51:16;239.43;;;123.73;;
14066;SDS011;7108;42.684;23.350;2022-11-09T13:53:56;275.27;;;127.83;;
14066;SDS011;7108;42.684;23.350;2022-11-09T13:59:10;232.30;;;122.17;;
14066;SDS011;7108;42.684;23.350;2022-11-09T14:07:03;275.37;;;124.93;;
14066;SDS011;7108;42.684;23.350;2022-11-09T14:09:37;242.10;;;116.13;;
14066;SDS011;7108;42.684;23.350;2022-11-09T14:15:12;237.03;;;114.23;;
14066;SDS011;7108;42.684;23.350;2022-11-09T14:20:46;249.17;;;116.57;;
14066;SDS011;7108;42.684;23.350;2022-11-09T14:23:20;274.27;;;121.93;;
14066;SDS011;7108;42.684;23.350;2022-11-09T14:25:47;261.67;;;117.43;;
14066;SDS011;7108;42.684;23.350;2022-11-09T14:28:23;254.93;;;116.73;;
14066;SDS011;7108;42.684;23.350;2022-11-09T14:30:50;268.03;;;115.83;;
14066;SDS011;7108;42.684;23.350;2022-11-09T14:33:20;265.90;;;116.00;;
14066;SDS011;7108;42.684;23.350;2022-11-09T14:35:49;266.90;;;118.40;;
14066;SDS011;7108;42.684;23.350;2022-11-09T14:38:20;289.73;;;122.13;;
14066;SDS011;7108;42.684;23.350;2022-11-09T14:40:48;261.83;;;118.80;;
14066;SDS011;7108;42.684;23.350;2022-11-09T14:46:16;276.43;;;116.10;;
14066;SDS011;7108;42.684;23.350;2022-11-09T14:51:21;255.70;;;110.83;;
14066;SDS011;7108;42.684;23.350;2022-11-09T14:53:54;258.33;;;110.80;;
14066;SDS011;7108;42.684;23.350;2022-11-09T14:56:21;260.53;;;110.67;;
14066;SDS011;7108;42.684;23.350;2022-11-09T14:58:47;270.20;;;113.97;;
14066;SDS011;7108;42.684;23.350;2022-11-09T15:03:42;297.63;;;115.90;;
14066;SDS011;7108;42.684;23.350;2022-11-09T15:06:12;333.17;;;121.70;;
14066;SDS011;7108;42.684;23.350;2022-11-09T15:08:49;295.27;;;115.73;;
14066;SDS011;7108;42.684;23.350;2022-11-09T15:11:20;335.07;;;116.00;;
14066;SDS011;7108;42.684;23.350;2022-11-09T15:13:56;289.60;;;114.77;;
14066;SDS011;7108;42.684;23.350;2022-11-09T15:16:25;331.93;;;113.97;;
14066;SDS011;7108;42.684;23.350;2022-11-09T15:18:52;334.50;;;120.40;;
14066;SDS011;7108;42.684;23.350;2022-11-09T15:21:19;352.27;;;111.63;;
14066;SDS011;7108;42.684;23.350;2022-11-09T15:26:39;323.50;;;109.87;;
14066;SDS011;7108;42.684;23.350;2022-11-09T15:32:00;327.67;;;120.15;;
14066;SDS011;7108;42.684;23.350;2022-11-09T15:35:12;284.47;;;108.93;;
14066;SDS011;7108;42.684;23.350;2022-11-09T15:40:09;241.20;;;103.33;;
14066;SDS011;7108;42.684;23.350;2022-11-09T15:42:36;269.00;;;110.00;;
14066;SDS011;7108;42.684;23.350;2022-11-09T15:45:02;242.27;;;104.97;;
14066;SDS011;7108;42.684;23.350;2022-11-09T15:47:32;252.37;;;101.07;;
14066;SDS011;7108;42.684;23.350;2022-11-09T15:50:00;236.60;;;102.10;;
14066;SDS011;7108;42.684;23.350;2022-11-09T15:52:30;264.83;;;103.47;;
14066;SDS011;7108;42.684;23.350;2022-11-09T15:54:56;248.50;;;103.87;;
14066;SDS011;7108;42.684;23.350;2022-11-09T15:57:21;282.63;;;105.67;;
14066;SDS011;7108;42.684;23.350;2022-11-09T15:59:48;290.97;;;107.03;;
14066;SDS011;7108;42.684;23.350;2022-11-09T16:02:15;264.77;;;105.10;;
14066;SDS011;7108;42.684;23.350;2022-11-09T16:04:43;262.00;;;101.83;;
14066;SDS011;7108;42.684;23.350;2022-11-09T16:07:09;262.20;;;105.27;;
14066;SDS011;7108;42.684;23.350;2022-11-09T16:09:38;254.23;;;105.30;;
14066;SDS011;7108;42.684;23.350;2022-11-09T16:12:05;243.80;;;100.90;;
14066;SDS011;7108;42.684;23.350;2022-11-09T16:14:31;260.17;;;100.97;;
14066;SDS011;7108;42.684;23.350;2022-11-09T16:16:57;252.17;;;101.87;;